Time;durP1;ratioP1;P1;durP2;ratioP2;P2;SDS_P1;SDS_P2;PMS_P1;PMS_P2;Temp;Humidity;BMP_temperature;BMP_pressure;BME280_temperature;BME280_humidity;BME280_pressure;Samples;Min_cycle;Max_cycle;Signal;HPM_P1;HPM_P2
2023/11/15 00:00:38;;;;;;;5.35;1.75;;;;;;;10.70;100.00;100822.88;5075468;28;20024;-87
2023/11/15 00:03:04;;;;;;;7.30;2.05;;;;;;;10.70;100.00;100825.50;5057322;28;20037;-86
2023/11/15 00:05:29;;;;;;;10.18;2.65;;;;;;;10.70;100.00;100828.13;5058706;28;20236;-86
2023/11/15 00:07:55;;;;;;;12.38;2.72;;;;;;;10.69;100.00;100817.69;5041591;28;20248;-87
2023/11/15 00:10:22;;;;;;;15.70;3.13;;;;;;;10.67;100.00;100820.38;5055775;28;20116;-87
2023/11/15 00:12:48;;;;;;;11.90;2.78;;;;;;;10.68;100.00;100827.31;5054674;28;20226;-87
2023/11/15 00:15:14;;;;;;;5.63;2.08;;;;;;;10.69;100.00;100823.78;5055381;28;20104;-87
2023/11/15 00:17:39;;;;;;;7.25;2.17;;;;;;;10.72;100.00;100833.28;5036023;28;20310;-87
2023/11/15 00:20:06;;;;;;;8.15;2.08;;;;;;;10.72;100.00;100833.28;5054814;28;20072;-87
2023/11/15 00:22:31;;;;;;;5.53;1.98;;;;;;;10.70;100.00;100832.50;5055220;28;20383;-87
2023/11/15 00:24:57;;;;;;;8.07;2.05;;;;;;;10.71;100.00;100842.06;5054621;28;20124;-87
2023/11/15 00:27:23;;;;;;;10.80;2.58;;;;;;;10.70;100.00;100842.97;5055921;28;20045;-87
2023/11/15 00:29:49;;;;;;;7.35;2.33;;;;;;;10.70;100.00;100849.06;5055723;28;20040;-87
2023/11/15 00:32:14;;;;;;;15.43;2.63;;;;;;;10.67;100.00;100851.81;5055469;28;20037;-87
2023/11/15 00:34:40;;;;;;;9.45;2.60;;;;;;;10.67;100.00;100858.81;5054840;28;20044;-87
2023/11/15 00:37:06;;;;;;;5.20;1.75;;;;;;;10.67;100.00;100849.19;5056112;28;20048;-86
2023/11/15 00:39:31;;;;;;;4.00;1.58;;;;;;;10.67;100.00;100862.28;5055576;28;20036;-87
2023/11/15 00:41:57;;;;;;;5.82;2.08;;;;;;;10.67;100.00;100870.13;5055908;28;20054;-87
2023/11/15 00:44:23;;;;;;;11.57;2.60;;;;;;;10.66;100.00;100864.94;5054905;28;20040;-87
2023/11/15 00:46:48;;;;;;;7.75;1.88;;;;;;;10.67;100.00;100874.53;5055000;28;20043;-87
2023/11/15 00:49:13;;;;;;;6.43;1.83;;;;;;;10.66;100.00;100870.19;5055539;28;20056;-87
2023/11/15 00:51:39;;;;;;;7.00;2.28;;;;;;;10.64;100.00;100870.28;5055019;28;20029;-87
2023/11/15 00:54:06;;;;;;;12.48;2.85;;;;;;;10.63;100.00;100872.97;5037318;28;20028;-87
2023/11/15 00:56:32;;;;;;;6.38;1.90;;;;;;;10.63;100.00;100881.66;5054042;28;20049;-87
2023/11/15 00:58:57;;;;;;;9.77;2.40;;;;;;;10.62;100.00;100882.56;5054736;28;20045;-87
2023/11/15 01:01:25;;;;;;;10.40;2.33;;;;;;;10.60;100.00;100884.38;5055058;28;20035;-87
2023/11/15 01:03:58;;;;;;;12.65;2.50;;;;;;;10.60;100.00;100887.00;5047574;28;20041;-87
2023/11/15 01:06:27;;;;;;;6.50;2.00;;;;;;;10.60;100.00;100888.78;5054565;28;20025;-87
2023/11/15 01:08:54;;;;;;;16.30;2.75;;;;;;;10.52;100.00;100884.69;5055446;28;20052;-87
2023/11/15 01:11:20;;;;;;;13.18;3.05;;;;;;;10.55;100.00;100891.56;5063708;28;20033;-87
2023/11/15 01:13:46;;;;;;;9.20;2.33;;;;;;;10.56;100.00;100903.75;5054996;28;20127;-86
2023/11/15 01:16:12;;;;;;;7.22;1.83;;;;;;;10.57;100.00;100900.25;5072498;28;20288;-87
2023/11/15 01:18:37;;;;;;;7.18;1.85;;;;;;;10.58;100.00;100904.56;5074237;28;20040;-87
2023/11/15 01:21:05;;;;;;;5.45;1.42;;;;;;;10.59;100.00;100916.75;5074275;28;20028;-87
2023/11/15 01:23:30;;;;;;;8.32;2.10;;;;;;;10.61;100.00;100904.44;5074864;28;20330;-87
2023/11/15 01:25:56;;;;;;;6.20;1.60;;;;;;;10.62;100.00;100907.91;5074821;28;20078;-86
2023/11/15 01:28:21;;;;;;;13.00;2.53;;;;;;;10.60;100.00;100918.44;5073016;28;20078;-87
2023/11/15 01:30:47;;;;;;;6.13;1.67;;;;;;;10.60;100.00;100923.66;5057758;28;20336;-86
2023/11/15 01:33:13;;;;;;;6.53;2.05;;;;;;;10.60;100.00;100922.84;5054893;28;20051;-86
2023/11/15 01:35:38;;;;;;;4.65;1.70;;;;;;;10.60;100.00;100925.44;5071332;28;20036;-87
2023/11/15 01:38:03;;;;;;;4.50;1.60;;;;;;;10.61;100.00;100929.78;5056110;28;20040;-87
2023/11/15 01:40:33;;;;;;;4.15;1.63;;;;;;;10.60;100.00;100938.53;5061204;28;20316;-87
2023/11/15 01:43:00;;;;;;;3.47;1.40;;;;;;;10.62;100.00;100934.09;5057044;28;20327;-87
2023/11/15 01:45:25;;;;;;;11.82;1.95;;;;;;;10.61;100.00;100935.03;5066516;28;20359;-87
2023/11/15 01:47:51;;;;;;;13.88;2.28;;;;;;;10.58;100.00;100941.22;5054643;28;20038;-87
2023/11/15 01:50:17;;;;;;;7.57;1.70;;;;;;;10.59;100.00;100947.28;5054934;28;20250;-87
2023/11/15 01:52:45;;;;;;;9.82;1.98;;;;;;;10.61;100.00;100954.19;5053219;28;20036;-87
2023/11/15 01:55:18;;;;;;;6.10;1.83;;;;;;;10.62;100.00;100957.66;5055029;28;20204;-87
2023/11/15 01:57:44;;;;;;;5.53;1.70;;;;;;;10.62;100.00;100962.91;5063534;28;20119;-87
2023/11/15 02:00:14;;;;;;;6.43;1.33;;;;;;;10.63;100.00;100964.63;5074967;28;20032;-87
2023/11/15 02:02:40;;;;;;;5.10;1.40;;;;;;;10.61;100.00;100969.06;5073804;28;20056;-87
2023/11/15 02:05:08;;;;;;;6.70;1.48;;;;;;;10.62;100.00;100976.84;5074502;28;20036;-87
2023/11/15 02:07:33;;;;;;;8.10;1.63;;;;;;;10.63;100.00;100975.09;5074040;28;20251;-86
2023/11/15 02:10:01;;;;;;;11.95;1.73;;;;;;;10.61;100.00;100976.94;5074623;28;20077;-87
2023/11/15 02:12:27;;;;;;;6.78;1.92;;;;;;;10.60;100.00;100973.44;5073989;28;20069;-86
2023/11/15 02:14:53;;;;;;;4.93;1.65;;;;;;;10.61;100.00;100983.00;5074565;28;20032;-87
2023/11/15 02:17:18;;;;;;;7.95;2.03;;;;;;;10.61;100.00;100980.41;5074674;28;20040;-87
2023/11/15 02:19:44;;;;;;;2.75;1.23;;;;;;;10.63;100.00;100986.41;5074496;28;20032;-87
2023/11/15 02:22:09;;;;;;;5.85;1.40;;;;;;;10.63;100.00;100991.66;5075059;28;20211;-87
2023/11/15 02:24:35;;;;;;;3.50;1.30;;;;;;;10.62;100.00;100992.56;5074242;28;20033;-87
2023/11/15 02:27:00;;;;;;;4.60;1.23;;;;;;;10.64;100.00;100995.13;5074968;28;20128;-87
2023/11/15 02:29:26;;;;;;;12.00;2.25;;;;;;;10.61;100.00;100993.50;5074777;28;20115;-86
2023/11/15 02:31:51;;;;;;;6.93;1.67;;;;;;;10.61;100.00;100997.88;5074478;28;20563;-87
2023/11/15 02:34:17;;;;;;;6.95;1.67;;;;;;;10.62;100.00;100996.94;5064661;28;20033;-87
2023/11/15 02:36:43;;;;;;;5.28;1.50;;;;;;;10.61;100.00;101008.34;5055299;28;20274;-87
2023/11/15 02:39:08;;;;;;;12.10;2.40;;;;;;;10.56;100.00;100998.88;5058535;28;20092;-87
2023/11/15 02:41:34;;;;;;;9.05;2.53;;;;;;;10.59;100.00;101004.91;5063419;28;20228;-86
2023/11/15 02:43:59;;;;;;;7.13;2.00;;;;;;;10.58;100.00;101004.06;5064657;28;20078;-87
2023/11/15 02:46:25;;;;;;;5.20;1.63;;;;;;;10.59;100.00;101012.78;5058331;28;20056;-87
2023/11/15 02:48:50;;;;;;;9.75;2.42;;;;;;;10.58;100.00;101014.53;5078248;28;20036;-87
2023/11/15 02:51:16;;;;;;;8.45;2.28;;;;;;;10.59;100.00;101012.78;5077331;28;20036;-87
2023/11/15 02:53:42;;;;;;;5.05;1.50;;;;;;;10.59;100.00;101012.78;5074444;28;20024;-86
2023/11/15 02:56:08;;;;;;;7.30;1.83;;;;;;;10.60;100.00;101011.88;5075234;28;20308;-87
2023/11/15 02:58:33;;;;;;;4.95;1.30;;;;;;;10.60;100.00;101011.88;5064506;28;20056;-87
2023/11/15 03:00:59;;;;;;;4.82;1.30;;;;;;;10.60;100.00;101011.88;5073161;28;20040;-87
2023/11/15 03:03:24;;;;;;;3.40;1.20;;;;;;;10.60;100.00;101017.13;5063284;28;20209;-87
2023/11/15 03:05:50;;;;;;;2.50;1.10;;;;;;;10.60;100.00;101019.72;5068969;28;20094;-86
2023/11/15 03:08:18;;;;;;;3.60;1.20;;;;;;;10.60;100.00;101011.88;5071250;28;20047;-87
2023/11/15 03:10:44;;;;;;;1.42;1.20;;;;;;;10.60;100.00;101017.94;5068578;28;20044;-87
2023/11/15 03:13:10;;;;;;;7.82;1.95;;;;;;;10.59;100.00;101011.03;5056145;28;20028;-87
2023/11/15 03:15:36;;;;;;;13.18;2.25;;;;;;;10.56;100.00;101008.50;5057137;28;20043;-87
2023/11/15 03:18:02;;;;;;;8.63;1.98;;;;;;;10.55;100.00;101017.28;5057632;28;20039;-87
2023/11/15 03:20:28;;;;;;;9.88;2.10;;;;;;;10.57;100.00;101021.56;5057101;28;20372;-86
2023/11/15 03:22:53;;;;;;;4.68;1.63;;;;;;;10.57;100.00;101020.72;5059013;28;20056;-86
2023/11/15 03:25:19;;;;;;;5.20;1.60;;;;;;;10.57;100.00;101018.94;5077023;28;20032;-86
2023/11/15 03:27:45;;;;;;;1.35;0.82;;;;;;;10.58;100.00;101019.78;5076545;28;20058;-87
2023/11/15 03:30:12;;;;;;;5.05;1.65;;;;;;;10.60;100.00;101027.59;5077005;28;20064;-87
2023/11/15 03:32:37;;;;;;;5.47;1.80;;;;;;;10.59;100.00;101031.09;5076725;28;20020;-88
2023/11/15 03:35:04;;;;;;;6.43;1.45;;;;;;;10.61;100.00;101034.53;5058484;28;20050;-88
2023/11/15 03:37:30;;;;;;;7.90;1.63;;;;;;;10.60;100.00;101033.66;5058261;28;20275;-87
2023/11/15 03:39:56;;;;;;;3.08;1.48;;;;;;;10.60;100.00;101036.28;5076728;28;20212;-88
2023/11/15 03:42:21;;;;;;;5.18;1.52;;;;;;;10.60;100.00;101038.06;5076832;28;20086;-88
2023/11/15 03:44:47;;;;;;;5.07;1.73;;;;;;;10.61;100.00;101032.78;5076312;28;20036;-88
2023/11/15 03:47:12;;;;;;;3.95;1.23;;;;;;;10.62;100.00;101039.69;5076426;28;20082;-88
2023/11/15 03:49:37;;;;;;;5.75;1.63;;;;;;;10.60;100.00;101038.06;5075898;28;20039;-87
2023/11/15 03:52:03;;;;;;;4.95;1.27;;;;;;;10.61;100.00;101047.63;5058417;28;20243;-87
2023/11/15 03:54:28;;;;;;;5.03;1.58;;;;;;;10.60;100.00;101051.16;5076497;28;20040;-88
2023/11/15 03:56:54;;;;;;;2.58;1.10;;;;;;;10.59;100.00;101045.06;5076397;28;20025;-87
2023/11/15 03:59:19;;;;;;;6.25;1.50;;;;;;;10.60;100.00;101054.63;5067753;28;20259;-87
2023/11/15 04:01:48;;;;;;;5.70;1.50;;;;;;;10.59;100.00;101055.56;5056173;28;20313;-87
2023/11/15 04:04:14;;;;;;;7.07;1.25;;;;;;;10.59;100.00;101058.16;5056308;28;20040;-87
2023/11/15 04:06:39;;;;;;;4.32;1.27;;;;;;;10.61;100.00;101056.34;5055772;28;20029;-87
2023/11/15 04:09:04;;;;;;;5.25;1.90;;;;;;;10.60;100.00;101061.63;5056263;28;20044;-87
2023/11/15 04:11:40;;;;;;;5.43;1.42;;;;;;;10.62;100.00;101073.75;5072953;28;20044;-88
2023/11/15 04:14:06;;;;;;;4.55;1.48;;;;;;;10.61;100.00;101074.69;5057981;28;20071;-88
2023/11/15 04:16:31;;;;;;;4.35;1.40;;;;;;;10.61;100.00;101076.44;5065949;28;20056;-87
2023/11/15 04:18:58;;;;;;;5.47;1.38;;;;;;;10.61;100.00;101079.91;5073277;28;20064;-88
2023/11/15 04:21:24;;;;;;;6.65;2.03;;;;;;;10.62;100.00;101089.47;5058781;28;20328;-87
2023/11/15 04:23:49;;;;;;;14.23;1.40;;;;;;;10.62;100.00;101080.75;5055815;28;20044;-87
2023/11/15 04:26:16;;;;;;;7.40;1.40;;;;;;;10.63;100.00;101095.56;5056176;28;20099;-87
2023/11/15 04:28:41;;;;;;;12.65;2.13;;;;;;;10.61;100.00;101092.16;5055365;28;20405;-88
2023/11/15 04:31:06;;;;;;;10.60;2.30;;;;;;;10.60;100.00;101096.53;5055654;28;20036;-88
2023/11/15 04:33:31;;;;;;;10.23;2.90;;;;;;;10.56;100.00;101094.94;5071618;28;20032;-87
2023/11/15 04:35:59;;;;;;;9.25;1.50;;;;;;;10.55;100.00;101094.09;5075694;28;20036;-88
2023/11/15 04:38:26;;;;;;;5.18;2.05;;;;;;;10.57;100.00;101110.59;5075368;28;20335;-87
2023/11/15 04:40:52;;;;;;;3.72;1.63;;;;;;;10.60;100.00;101119.25;5057759;28;20346;-88
2023/11/15 04:43:17;;;;;;;6.47;1.10;;;;;;;10.60;100.00;101106.16;5075426;28;20036;-88
2023/11/15 04:45:43;;;;;;;7.90;1.92;;;;;;;10.60;100.00;101109.63;5063572;28;20059;-87
2023/11/15 04:48:08;;;;;;;4.70;1.40;;;;;;;10.60;100.00;101111.41;5055219;28;20036;-88
2023/11/15 04:50:33;;;;;;;11.27;1.90;;;;;;;10.57;100.00;101118.47;5054887;28;20032;-87
2023/11/15 04:52:59;;;;;;;5.18;2.00;;;;;;;10.56;100.00;101111.50;5055468;28;20269;-88
2023/11/15 04:55:25;;;;;;;7.57;1.73;;;;;;;10.58;100.00;101111.44;5068336;28;20036;-88
2023/11/15 04:57:50;;;;;;;4.00;1.40;;;;;;;10.57;100.00;101112.38;5056316;28;20361;-87
2023/11/15 05:00:15;;;;;;;4.38;1.40;;;;;;;10.56;100.00;101123.75;5073375;28;20328;-88
2023/11/15 05:02:41;;;;;;;6.70;1.67;;;;;;;10.55;100.00;101125.53;5072935;28;20231;-87
2023/11/15 05:05:06;;;;;;;4.10;1.40;;;;;;;10.56;100.00;101124.59;5072846;28;20100;-87
2023/11/15 05:07:36;;;;;;;3.67;1.15;;;;;;;10.56;100.00;101127.22;5068792;28;20040;-88
2023/11/15 05:10:04;;;;;;;5.32;1.25;;;;;;;10.55;100.00;101122.91;5071348;28;20081;-88
2023/11/15 05:12:30;;;;;;;2.53;1.05;;;;;;;10.56;100.00;101123.75;5066055;28;20086;-87
2023/11/15 05:14:56;;;;;;;8.35;1.23;;;;;;;10.57;100.00;101133.31;5056924;28;20117;-88
2023/11/15 05:17:21;;;;;;;4.60;1.10;;;;;;;10.62;100.00;101131.38;5072861;28;20039;-88
2023/11/15 05:19:46;;;;;;;3.78;1.80;;;;;;;10.66;100.00;101135.59;5065891;28;20033;-87
2023/11/15 05:22:12;;;;;;;4.32;1.60;;;;;;;10.69;100.00;101139.88;5053523;28;20017;-87
2023/11/15 05:24:37;;;;;;;7.82;1.55;;;;;;;10.71;100.00;101136.31;5054797;28;20075;-88
2023/11/15 05:27:03;;;;;;;5.60;1.35;;;;;;;10.71;100.00;101141.53;5054786;28;20032;-87
2023/11/15 05:29:30;;;;;;;5.78;1.52;;;;;;;10.72;100.00;101151.09;5055026;28;20232;-88
2023/11/15 05:31:55;;;;;;;3.45;1.08;;;;;;;10.72;100.00;101145.84;5070764;28;20105;-87
2023/11/15 05:34:20;;;;;;;5.60;1.23;;;;;;;10.69;100.00;101148.56;5049259;28;20036;-88
2023/11/15 05:36:46;;;;;;;5.15;1.40;;;;;;;10.68;100.00;101146.03;5053888;28;20028;-87
2023/11/15 05:39:11;;;;;;;3.72;1.40;;;;;;;10.65;100.00;101146.97;5054390;28;20059;-87
2023/11/15 05:41:36;;;;;;;4.15;1.25;;;;;;;10.62;100.00;101157.56;5065071;28;20099;-88
2023/11/15 05:44:03;;;;;;;6.18;1.38;;;;;;;10.58;100.00;101150.72;5050656;28;20063;-87
2023/11/15 05:46:29;;;;;;;4.70;1.67;;;;;;;10.57;100.00;101155.13;5065525;28;20063;-88
2023/11/15 05:48:54;;;;;;;7.28;1.60;;;;;;;10.53;100.00;101156.16;5068990;28;20316;-88
2023/11/15 05:51:19;;;;;;;8.70;2.13;;;;;;;10.52;100.00;101158.81;5070422;28;20104;-87
2023/11/15 05:53:45;;;;;;;3.80;1.38;;;;;;;10.49;100.00;101157.13;5053917;28;20103;-87
2023/11/15 05:56:11;;;;;;;6.05;1.20;;;;;;;10.50;100.00;101158.00;5057639;28;20262;-87
2023/11/15 05:58:36;;;;;;;5.70;1.30;;;;;;;10.51;100.00;101160.59;5069156;28;20051;-88
2023/11/15 06:01:03;;;;;;;4.18;1.13;;;;;;;10.48;100.00;101155.44;5053993;28;20024;-87
2023/11/15 06:03:29;;;;;;;5.88;1.50;;;;;;;10.47;100.00;101163.34;5073272;28;20386;-87
2023/11/15 06:05:54;;;;;;;7.43;1.70;;;;;;;10.45;100.00;101167.78;5064012;28;20380;-88
2023/11/15 06:08:19;;;;;;;5.07;1.30;;;;;;;10.45;100.00;101167.78;5057616;28;20286;-88
2023/11/15 06:10:47;;;;;;;10.55;1.45;;;;;;;10.43;100.00;101164.38;5052729;28;20036;-87
2023/11/15 06:13:15;;;;;;;6.15;1.40;;;;;;;10.42;100.00;101168.75;5059610;28;20044;-87
2023/11/15 06:15:41;;;;;;;4.80;1.70;;;;;;;10.41;100.00;101167.03;5059041;28;20078;-87
2023/11/15 06:18:07;;;;;;;3.60;1.02;;;;;;;10.41;100.00;101171.44;5073632;28;20039;-87
2023/11/15 06:20:33;;;;;;;3.00;1.20;;;;;;;10.41;100.00;101171.44;5066752;28;20044;-87
2023/11/15 06:22:58;;;;;;;5.43;1.23;;;;;;;10.40;100.00;101181.03;5064297;28;20051;-87
2023/11/15 06:25:24;;;;;;;6.75;1.45;;;;;;;10.40;100.00;101181.03;5057873;28;20339;-87
2023/11/15 06:27:49;;;;;;;5.22;1.60;;;;;;;10.41;100.00;101181.91;5058837;28;20047;-87
2023/11/15 06:30:17;;;;;;;9.88;1.92;;;;;;;10.38;100.00;101185.47;5075227;28;20105;-87
2023/11/15 06:32:44;;;;;;;11.38;2.05;;;;;;;10.39;100.00;101187.19;5052097;28;20033;-88
2023/11/15 06:35:10;;;;;;;5.68;1.20;;;;;;;10.41;100.00;101188.00;5069734;28;20355;-87
2023/11/15 06:37:35;;;;;;;5.25;1.45;;;;;;;10.41;100.00;101188.00;5057695;28;20036;-87
2023/11/15 06:40:07;;;;;;;6.00;1.58;;;;;;;10.43;100.00;101199.25;5072964;28;20040;-87
2023/11/15 06:42:34;;;;;;;15.27;2.17;;;;;;;10.42;100.00;101194.06;5073889;28;20071;-87
2023/11/15 06:45:00;;;;;;;5.25;1.75;;;;;;;10.42;100.00;101194.06;5059845;28;20032;-87
2023/11/15 06:47:28;;;;;;;4.70;1.13;;;;;;;10.41;100.00;101195.00;5073607;28;20036;-88
2023/11/15 06:49:54;;;;;;;5.55;1.20;;;;;;;10.42;100.00;101194.91;5060592;28;20127;-87
2023/11/15 06:52:25;;;;;;;3.88;1.40;;;;;;;10.43;100.00;101201.88;5048905;28;20042;-87
2023/11/15 06:54:52;;;;;;;3.30;1.25;;;;;;;10.41;100.00;101203.69;5054247;28;20044;-87
2023/11/15 06:57:19;;;;;;;5.60;1.27;;;;;;;10.41;100.00;101205.47;5042635;28;20200;-88
2023/11/15 06:59:44;;;;;;;12.20;2.40;;;;;;;10.41;100.00;101222.03;5055530;28;20040;-88
2023/11/15 07:02:11;;;;;;;3.65;1.15;;;;;;;10.41;100.00;101223.81;5063209;28;20194;-88
2023/11/15 07:04:37;;;;;;;4.05;1.33;;;;;;;10.40;100.00;101222.91;5049369;28;20029;-87
2023/11/15 07:07:02;;;;;;;4.00;1.48;;;;;;;10.40;100.00;101228.16;5058548;28;20379;-87
2023/11/15 07:09:28;;;;;;;6.75;1.20;;;;;;;10.41;100.00;101227.25;5075422;28;20096;-88
2023/11/15 07:11:53;;;;;;;2.17;1.23;;;;;;;10.40;100.00;101230.78;5076846;28;20036;-87
2023/11/15 07:14:20;;;;;;;14.85;2.28;;;;;;;10.40;100.00;101229.94;5076307;28;20036;-87
2023/11/15 07:16:52;;;;;;;3.55;1.10;;;;;;;10.38;100.00;101229.97;5074960;28;20111;-87
2023/11/15 07:19:18;;;;;;;18.33;2.10;;;;;;;10.35;100.00;101238.81;5054454;28;20298;-87
2023/11/15 07:21:43;;;;;;;7.32;1.58;;;;;;;10.36;100.00;101239.66;5054672;28;20405;-87
2023/11/15 07:24:09;;;;;;;7.18;1.60;;;;;;;10.36;100.00;101237.03;5054998;28;20335;-87
2023/11/15 07:26:35;;;;;;;6.78;1.50;;;;;;;10.36;100.00;101247.50;5055197;28;20335;-87
2023/11/15 07:29:09;;;;;;;8.10;2.00;;;;;;;10.34;100.00;101251.94;5037989;28;20074;-87
2023/11/15 07:31:36;;;;;;;5.63;1.23;;;;;;;10.34;100.00;101254.56;5055321;28;20120;-87
2023/11/15 07:34:05;;;;;;;5.05;1.52;;;;;;;10.34;100.00;101252.78;5056854;28;20236;-87
2023/11/15 07:36:33;;;;;;;11.50;1.98;;;;;;;10.34;100.00;101254.56;5056045;28;20068;-88
2023/11/15 07:38:59;;;;;;;10.75;2.00;;;;;;;10.33;100.00;101260.69;5056491;28;20059;-88
2023/11/15 07:41:25;;;;;;;4.35;1.38;;;;;;;10.33;100.00;101260.69;5054907;28;20092;-88
2023/11/15 07:43:54;;;;;;;9.18;1.58;;;;;;;10.33;100.00;101269.41;5054749;28;20251;-88
2023/11/15 07:46:23;;;;;;;5.57;1.60;;;;;;;10.34;100.00;101270.25;5037323;28;20028;-88
2023/11/15 07:48:49;;;;;;;8.23;2.08;;;;;;;10.35;100.00;101277.19;5037057;28;20232;-88
2023/11/15 07:51:14;;;;;;;5.50;1.52;;;;;;;10.37;100.00;101275.41;5055418;28;20036;-88
2023/11/15 07:53:40;;;;;;;8.32;1.50;;;;;;;10.36;100.00;101279.78;5054822;28;20046;-88
2023/11/15 07:56:06;;;;;;;9.30;2.05;;;;;;;10.37;100.00;101283.25;5056559;28;20323;-88
2023/11/15 07:58:33;;;;;;;9.70;1.95;;;;;;;10.38;100.00;101290.19;5056354;28;20359;-88
2023/11/15 08:00:59;;;;;;;3.22;0.90;;;;;;;10.40;100.00;101298.00;5056487;28;20259;-88
2023/11/15 08:03:28;;;;;;;2.65;1.27;;;;;;;10.42;100.00;101288.34;5056543;28;20105;-88
2023/11/15 08:05:55;;;;;;;5.63;1.38;;;;;;;10.43;100.00;101293.53;5056149;28;20041;-88
2023/11/15 08:08:21;;;;;;;7.95;1.38;;;;;;;10.42;100.00;101299.66;5056024;28;20119;-88
2023/11/15 08:10:48;;;;;;;14.68;2.50;;;;;;;10.41;100.00;101299.72;5055677;28;20096;-88
2023/11/15 08:13:14;;;;;;;10.35;2.42;;;;;;;10.39;100.00;101302.41;5056306;28;20348;-88
2023/11/15 08:15:39;;;;;;;11.90;1.60;;;;;;;10.40;100.00;101305.84;5053677;28;20037;-88
2023/11/15 08:18:05;;;;;;;5.68;1.42;;;;;;;10.42;100.00;101310.13;5047404;28;20090;-88
2023/11/15 08:20:31;;;;;;;5.38;1.30;;;;;;;10.41;100.00;101315.44;5053697;28;20247;-88
2023/11/15 08:22:57;;;;;;;6.80;1.50;;;;;;;10.43;100.00;101314.47;5045051;28;20295;-88
2023/11/15 08:25:24;;;;;;;3.78;1.52;;;;;;;10.44;100.00;101313.59;5040807;28;20056;-88
2023/11/15 08:27:51;;;;;;;4.15;1.27;;;;;;;10.45;100.00;101312.66;5017950;28;20040;-88
2023/11/15 08:30:17;;;;;;;5.03;1.70;;;;;;;10.46;100.00;101323.97;5044923;28;20033;-88
2023/11/15 08:32:44;;;;;;;7.00;1.40;;;;;;;10.47;100.00;101320.47;5055252;28;20350;-88
2023/11/15 08:35:14;;;;;;;3.17;1.40;;;;;;;10.47;100.00;101320.47;5055830;28;20343;-88
2023/11/15 08:37:40;;;;;;;4.90;1.27;;;;;;;10.47;100.00;101337.03;5026065;28;20371;-88
2023/11/15 08:40:06;;;;;;;4.72;1.20;;;;;;;10.49;100.00;101336.97;5042539;28;20307;-88
2023/11/15 08:42:32;;;;;;;3.90;1.48;;;;;;;10.51;100.00;101333.44;5035785;28;20232;-88
2023/11/15 08:44:58;;;;;;;6.00;1.65;;;;;;;10.50;100.00;101329.06;5044849;28;20029;-87
2023/11/15 08:47:24;;;;;;;10.77;1.77;;;;;;;10.47;100.00;101330.94;5043063;28;20132;-88
2023/11/15 08:49:50;;;;;;;9.38;1.65;;;;;;;10.48;100.00;101332.66;5039975;28;20053;-88
2023/11/15 08:52:20;;;;;;;8.90;2.03;;;;;;;10.51;100.00;101338.66;5044565;28;20100;-88
2023/11/15 08:54:46;;;;;;;6.82;1.52;;;;;;;10.50;100.00;101339.56;5026918;28;20033;-88
2023/11/15 08:57:15;;;;;;;9.70;1.70;;;;;;;10.53;100.00;101338.59;5023947;28;20028;-88
2023/11/15 08:59:40;;;;;;;5.68;1.13;;;;;;;10.55;100.00;101337.66;5042560;28;20052;-88
2023/11/15 09:02:08;;;;;;;10.55;1.95;;;;;;;10.56;100.00;101338.50;5044918;28;20264;-88
2023/11/15 09:04:33;;;;;;;5.85;1.70;;;;;;;10.58;100.00;101336.69;5026019;28;20345;-88
2023/11/15 09:06:59;;;;;;;7.55;2.08;;;;;;;10.59;100.00;101350.63;5018984;28;20393;-88
2023/11/15 09:09:26;;;;;;;10.52;2.33;;;;;;;10.53;100.00;101342.09;5044614;28;20041;-88
2023/11/15 09:11:56;;;;;;;7.47;2.30;;;;;;;10.56;100.00;101343.72;5045052;28;20037;-88
2023/11/15 09:14:22;;;;;;;12.50;2.05;;;;;;;10.59;100.00;101354.13;5037808;28;20036;-88
2023/11/15 09:16:48;;;;;;;7.13;1.85;;;;;;;10.58;100.00;101355.00;5053248;28;20041;-88
2023/11/15 09:19:20;;;;;;;6.65;1.65;;;;;;;10.57;100.00;101353.31;5042530;28;20048;-88
2023/11/15 09:21:48;;;;;;;10.35;1.55;;;;;;;10.60;100.00;101352.34;5049283;28;20234;-88
2023/11/15 09:24:21;;;;;;;8.97;1.63;;;;;;;10.62;100.00;101353.16;5050202;28;20267;-88
2023/11/15 09:26:48;;;;;;;11.43;2.10;;;;;;;10.62;100.00;101350.53;5068987;28;20227;-88
2023/11/15 09:29:14;;;;;;;6.50;1.83;;;;;;;10.64;100.00;101354.84;5050800;28;20035;-88
2023/11/15 09:31:43;;;;;;;12.88;2.22;;;;;;;10.63;100.00;101358.34;5051823;28;20049;-88
2023/11/15 09:34:11;;;;;;;7.40;1.70;;;;;;;10.65;100.00;101355.69;5036432;28;20366;-88
2023/11/15 09:36:36;;;;;;;9.35;2.00;;;;;;;10.62;100.00;101354.00;5053188;28;20043;-88
2023/11/15 09:39:09;;;;;;;11.77;2.10;;;;;;;10.62;100.00;101354.00;5037456;28;20294;-88
2023/11/15 09:41:35;;;;;;;7.28;1.55;;;;;;;10.65;100.00;101355.69;5050908;28;20033;-88
2023/11/15 09:44:09;;;;;;;3.28;1.30;;;;;;;10.68;100.00;101358.22;5051558;28;20556;-88
2023/11/15 09:46:36;;;;;;;9.98;2.78;;;;;;;10.69;100.00;101349.44;5043184;28;20064;-88
2023/11/15 09:49:03;;;;;;;11.80;2.17;;;;;;;10.68;100.00;101343.34;5049676;28;20036;-88
2023/11/15 09:51:32;;;;;;;6.88;1.30;;;;;;;10.73;100.00;101358.88;5046071;28;20232;-88
2023/11/15 09:54:03;;;;;;;6.88;1.88;;;;;;;10.73;100.00;101351.91;5050887;28;20115;-88
2023/11/15 09:56:28;;;;;;;13.57;2.30;;;;;;;10.74;100.00;101358.00;5041871;28;20396;-88
2023/11/15 09:58:57;;;;;;;10.73;2.15;;;;;;;10.77;100.00;101355.28;5040074;28;20036;-88
2023/11/15 10:01:23;;;;;;;10.80;2.03;;;;;;;10.76;100.00;101364.03;5034182;28;20063;-88
2023/11/15 10:03:49;;;;;;;9.57;2.05;;;;;;;10.77;100.00;101357.91;5047857;28;20324;-88
2023/11/15 10:06:16;;;;;;;9.77;2.13;;;;;;;10.79;100.00;101365.69;5042980;28;20291;-88
2023/11/15 10:08:52;;;;;;;12.60;2.40;;;;;;;10.80;100.00;101364.78;5069491;28;20112;-88
2023/11/15 10:11:18;;;;;;;6.95;1.60;;;;;;;10.82;100.00;101373.44;5039203;28;20033;-88
2023/11/15 10:13:44;;;;;;;10.45;1.90;;;;;;;10.82;100.00;101381.31;5071431;28;20032;-88
2023/11/15 10:16:22;;;;;;;11.25;2.80;;;;;;;10.82;100.00;101371.69;5071278;28;20044;-88
2023/11/15 10:18:48;;;;;;;14.65;2.72;;;;;;;10.80;100.00;101370.88;5071909;28;20032;-88
2023/11/15 10:21:15;;;;;;;6.35;1.42;;;;;;;10.80;100.00;101376.13;5046103;28;20041;-88
2023/11/15 10:23:41;;;;;;;6.47;1.77;;;;;;;10.82;100.00;101370.84;5064577;28;20036;-88
2023/11/15 10:26:09;;;;;;;13.65;2.00;;;;;;;10.78;100.00;101371.84;5071717;28;20024;-88
2023/11/15 10:28:39;;;;;;;6.50;1.45;;;;;;;10.78;100.00;101374.47;5072945;28;20036;-88
2023/11/15 10:31:18;;;;;;;11.23;2.25;;;;;;;10.79;100.00;101384.03;5054088;28;20041;-88
2023/11/15 10:33:49;;;;;;;8.65;1.73;;;;;;;10.78;100.00;101398.06;5072917;28;20036;-88
2023/11/15 10:36:19;;;;;;;6.25;1.30;;;;;;;10.78;100.00;101384.94;5072152;28;20028;-88
2023/11/15 10:38:46;;;;;;;9.70;1.50;;;;;;;10.72;100.00;101388.63;5055005;28;20494;-88
2023/11/15 10:41:17;;;;;;;10.52;2.15;;;;;;;10.67;100.00;101380.06;5065893;28;20239;-88
2023/11/15 10:43:45;;;;;;;6.57;1.30;;;;;;;10.69;100.00;101384.31;5072909;28;20041;-88
2023/11/15 10:46:15;;;;;;;2.83;1.25;;;;;;;10.71;100.00;101379.03;5073883;28;20238;-88
2023/11/15 10:48:44;;;;;;;5.47;0.95;;;;;;;10.71;100.00;101385.16;5065034;28;20526;-88
2023/11/15 10:51:19;;;;;;;6.05;1.45;;;;;;;10.71;100.00;101382.53;5063914;28;20220;-88
2023/11/15 10:53:45;;;;;;;6.75;1.67;;;;;;;10.69;100.00;101378.25;5054987;28;20035;-88
2023/11/15 10:56:17;;;;;;;10.00;1.90;;;;;;;10.61;100.00;101385.50;5073226;28;20036;-88
2023/11/15 10:58:47;;;;;;;7.47;1.60;;;;;;;10.61;100.00;101385.50;5076933;28;20032;-88
2023/11/15 11:01:14;;;;;;;7.63;1.33;;;;;;;10.63;100.00;101386.31;5077116;28;20060;-88
2023/11/15 11:03:40;;;;;;;11.20;2.08;;;;;;;10.56;100.00;101391.72;5044265;28;20074;-88
2023/11/15 11:06:16;;;;;;;11.02;1.73;;;;;;;10.60;100.00;101392.47;5065130;28;20040;-88
2023/11/15 11:09:09;;;;;;;9.02;2.10;;;;;;;10.62;100.00;101388.06;5054475;28;20418;-88
2023/11/15 11:11:52;;;;;;;6.00;1.23;;;;;;;10.66;100.00;101375.72;5070464;28;20036;-88